Terminal Aerodrome Forecast
Issued by NWS Greer, SC

Home | Current Version | Previous Version | Text Only | Print | Product List | Glossary On
Versions: 1 2 3 4 5 6 7 8 9 10 11 12 13 14 15 16 17 18 19 20 21 22
000
FTUS42 KGSP 242328
TAFAVL
TAF
KAVL 242328Z 2500/2524 VRB03KT P6SM SCT050
     FM250100 33004KT P6SM SCT050 BKN200
     FM251000 34008KT P6SM SCT008
     FM251800 35014G20KT P6SM FEW250=

USA.gov is the U.S. government's official web portal to all federal, state and local government web resources and services.